sensor_id;sensor_type;location;lat;lon;timestamp;pressure;altitude;pressure_sealevel;temperature;humidity
77893;BME280;67087;50.094;14.338;2023-09-08T00:01:21;98631.92;;;27.63;32.66
77893;BME280;67087;50.094;14.338;2023-09-08T00:03:46;98634.42;;;27.59;31.73
77893;BME280;67087;50.094;14.338;2023-09-08T00:06:11;98632.85;;;27.54;31.11
77893;BME280;67087;50.094;14.338;2023-09-08T00:08:36;98632.74;;;27.57;31.60
77893;BME280;67087;50.094;14.338;2023-09-08T00:11:01;98632.48;;;27.62;31.82
77893;BME280;67087;50.094;14.338;2023-09-08T00:13:27;98634.76;;;27.46;31.66
77893;BME280;67087;50.094;14.338;2023-09-08T00:15:51;98634.48;;;27.89;32.01
77893;BME280;67087;50.094;14.338;2023-09-08T00:18:16;98634.04;;;27.68;30.87
77893;BME280;67087;50.094;14.338;2023-09-08T00:20:41;98628.78;;;27.55;31.32
77893;BME280;67087;50.094;14.338;2023-09-08T00:23:07;98627.73;;;27.80;32.44
77893;BME280;67087;50.094;14.338;2023-09-08T00:25:32;98624.59;;;27.42;32.03
77893;BME280;67087;50.094;14.338;2023-09-08T00:27:57;98621.33;;;27.56;31.74
77893;BME280;67087;50.094;14.338;2023-09-08T00:30:22;98619.62;;;27.57;31.30
77893;BME280;67087;50.094;14.338;2023-09-08T00:32:47;98620.50;;;27.60;31.52
77893;BME280;67087;50.094;14.338;2023-09-08T00:35:12;98618.00;;;27.53;31.30
77893;BME280;67087;50.094;14.338;2023-09-08T00:37:37;98616.32;;;27.49;31.21
77893;BME280;67087;50.094;14.338;2023-09-08T00:40:02;98615.23;;;27.48;31.70
77893;BME280;67087;50.094;14.338;2023-09-08T00:42:27;98614.00;;;27.55;32.05
77893;BME280;67087;50.094;14.338;2023-09-08T00:44:52;98615.77;;;27.57;31.86
77893;BME280;67087;50.094;14.338;2023-09-08T00:47:17;98617.16;;;27.71;31.84
77893;BME280;67087;50.094;14.338;2023-09-08T00:49:42;98616.64;;;27.59;32.37
77893;BME280;67087;50.094;14.338;2023-09-08T00:52:07;98614.33;;;27.42;31.81
77893;BME280;67087;50.094;14.338;2023-09-08T00:54:32;98617.06;;;27.30;32.07
77893;BME280;67087;50.094;14.338;2023-09-08T00:56:58;98618.33;;;27.59;31.94
77893;BME280;67087;50.094;14.338;2023-09-08T00:59:23;98618.23;;;27.46;32.12
77893;BME280;67087;50.094;14.338;2023-09-08T01:01:47;98618.87;;;27.63;31.99
77893;BME280;67087;50.094;14.338;2023-09-08T01:04:12;98617.51;;;27.38;31.85
77893;BME280;67087;50.094;14.338;2023-09-08T01:06:38;98616.80;;;27.44;31.56
77893;BME280;67087;50.094;14.338;2023-09-08T01:09:04;98616.94;;;27.53;32.60
77893;BME280;67087;50.094;14.338;2023-09-08T01:11:28;98616.82;;;27.21;32.04
77893;BME280;67087;50.094;14.338;2023-09-08T01:13:53;98616.79;;;27.78;32.35
77893;BME280;67087;50.094;14.338;2023-09-08T01:16:18;98615.76;;;27.70;31.56
77893;BME280;67087;50.094;14.338;2023-09-08T01:18:44;98616.87;;;27.35;31.52
77893;BME280;67087;50.094;14.338;2023-09-08T01:21:24;98619.02;;;27.70;32.39
77893;BME280;67087;50.094;14.338;2023-09-08T01:23:43;98621.81;;;27.33;31.60
77893;BME280;67087;50.094;14.338;2023-09-08T01:26:03;98622.11;;;27.29;31.54
77893;BME280;67087;50.094;14.338;2023-09-08T01:28:24;98621.65;;;27.57;32.30
77893;BME280;67087;50.094;14.338;2023-09-08T01:30:49;98616.87;;;27.28;31.95
77893;BME280;67087;50.094;14.338;2023-09-08T01:33:15;98615.56;;;27.32;32.31
77893;BME280;67087;50.094;14.338;2023-09-08T01:35:40;98614.62;;;27.18;32.28
77893;BME280;67087;50.094;14.338;2023-09-08T01:38:05;98615.06;;;27.25;32.21
77893;BME280;67087;50.094;14.338;2023-09-08T01:40:30;98612.75;;;27.33;32.37
77893;BME280;67087;50.094;14.338;2023-09-08T01:42:55;98612.80;;;27.26;32.30
77893;BME280;67087;50.094;14.338;2023-09-08T01:45:21;98611.49;;;27.24;32.07
77893;BME280;67087;50.094;14.338;2023-09-08T01:47:46;98613.39;;;27.23;31.64
77893;BME280;67087;50.094;14.338;2023-09-08T01:50:12;98612.27;;;27.39;31.62
77893;BME280;67087;50.094;14.338;2023-09-08T01:52:36;98615.66;;;27.27;31.45
77893;BME280;67087;50.094;14.338;2023-09-08T01:55:02;98615.96;;;27.35;31.30
77893;BME280;67087;50.094;14.338;2023-09-08T01:57:27;98616.80;;;27.24;31.38
77893;BME280;67087;50.094;14.338;2023-09-08T01:59:52;98613.79;;;27.29;31.32
77893;BME280;67087;50.094;14.338;2023-09-08T02:02:17;98614.53;;;27.47;31.40
77893;BME280;67087;50.094;14.338;2023-09-08T02:04:42;98611.36;;;27.23;31.18
77893;BME280;67087;50.094;14.338;2023-09-08T02:07:07;98609.42;;;27.38;31.51
77893;BME280;67087;50.094;14.338;2023-09-08T02:09:33;98607.01;;;27.13;32.02
77893;BME280;67087;50.094;14.338;2023-09-08T02:11:57;98608.41;;;27.41;31.59
77893;BME280;67087;50.094;14.338;2023-09-08T02:14:22;98606.53;;;27.44;31.41
77893;BME280;67087;50.094;14.338;2023-09-08T02:16:47;98604.59;;;27.40;30.82
77893;BME280;67087;50.094;14.338;2023-09-08T02:19:12;98604.72;;;27.35;30.98
77893;BME280;67087;50.094;14.338;2023-09-08T02:21:37;98602.46;;;27.51;31.06
77893;BME280;67087;50.094;14.338;2023-09-08T02:24:03;98604.88;;;27.44;31.02
77893;BME280;67087;50.094;14.338;2023-09-08T02:26:27;98604.23;;;27.41;30.93
77893;BME280;67087;50.094;14.338;2023-09-08T02:28:52;98601.15;;;27.57;31.77
77893;BME280;67087;50.094;14.338;2023-09-08T02:31:17;98599.14;;;27.40;31.59
77893;BME280;67087;50.094;14.338;2023-09-08T02:33:42;98593.31;;;27.36;31.85
77893;BME280;67087;50.094;14.338;2023-09-08T02:36:08;98591.30;;;27.39;31.42
77893;BME280;67087;50.094;14.338;2023-09-08T02:38:33;98587.62;;;27.30;31.53
77893;BME280;67087;50.094;14.338;2023-09-08T02:40:58;98586.43;;;27.35;31.51
77893;BME280;67087;50.094;14.338;2023-09-08T02:43:23;98586.74;;;27.53;31.30
77893;BME280;67087;50.094;14.338;2023-09-08T02:45:48;98587.78;;;27.34;31.28
77893;BME280;67087;50.094;14.338;2023-09-08T02:48:13;98590.79;;;27.46;31.40
77893;BME280;67087;50.094;14.338;2023-09-08T02:50:38;98591.02;;;27.37;31.41
77893;BME280;67087;50.094;14.338;2023-09-08T02:53:03;98593.07;;;27.38;31.43
77893;BME280;67087;50.094;14.338;2023-09-08T02:55:28;98593.05;;;27.16;31.56
77893;BME280;67087;50.094;14.338;2023-09-08T02:57:53;98591.39;;;27.44;31.63
77893;BME280;67087;50.094;14.338;2023-09-08T03:00:18;98592.49;;;27.41;31.69
77893;BME280;67087;50.094;14.338;2023-09-08T03:02:44;98591.18;;;27.31;31.57
77893;BME280;67087;50.094;14.338;2023-09-08T03:05:09;98591.30;;;27.82;31.57
77893;BME280;67087;50.094;14.338;2023-09-08T03:07:34;98590.78;;;27.39;31.68
77893;BME280;67087;50.094;14.338;2023-09-08T03:09:59;98590.34;;;27.24;31.49
77893;BME280;67087;50.094;14.338;2023-09-08T03:12:24;98590.04;;;27.80;31.15
77893;BME280;67087;50.094;14.338;2023-09-08T03:14:49;98589.17;;;27.24;30.90
77893;BME280;67087;50.094;14.338;2023-09-08T03:17:14;98590.87;;;27.38;31.32
77893;BME280;67087;50.094;14.338;2023-09-08T03:19:39;98588.89;;;27.23;31.57
77893;BME280;67087;50.094;14.338;2023-09-08T03:22:05;98586.80;;;27.53;31.26
77893;BME280;67087;50.094;14.338;2023-09-08T03:24:30;98586.20;;;27.20;30.82
77893;BME280;67087;50.094;14.338;2023-09-08T03:26:55;98585.94;;;27.17;30.91
77893;BME280;67087;50.094;14.338;2023-09-08T03:29:21;98584.24;;;27.21;30.76
77893;BME280;67087;50.094;14.338;2023-09-08T03:31:45;98586.76;;;27.08;30.67
77893;BME280;67087;50.094;14.338;2023-09-08T03:34:11;98586.15;;;27.13;30.74
77893;BME280;67087;50.094;14.338;2023-09-08T03:36:36;98586.00;;;27.15;31.01
77893;BME280;67087;50.094;14.338;2023-09-08T03:39:01;98586.45;;;27.05;30.35
77893;BME280;67087;50.094;14.338;2023-09-08T03:41:27;98587.82;;;27.19;31.19
77893;BME280;67087;50.094;14.338;2023-09-08T03:43:51;98590.36;;;27.15;30.76
77893;BME280;67087;50.094;14.338;2023-09-08T03:46:17;98590.37;;;27.49;30.92
77893;BME280;67087;50.094;14.338;2023-09-08T03:48:42;98588.82;;;27.21;31.03
77893;BME280;67087;50.094;14.338;2023-09-08T03:51:07;98588.89;;;27.13;31.11
77893;BME280;67087;50.094;14.338;2023-09-08T03:53:32;98590.18;;;27.14;30.98
77893;BME280;67087;50.094;14.338;2023-09-08T03:55:57;98588.32;;;27.40;30.76
77893;BME280;67087;50.094;14.338;2023-09-08T03:58:23;98586.75;;;27.17;30.56
77893;BME280;67087;50.094;14.338;2023-09-08T04:00:48;98587.80;;;27.21;30.66
77893;BME280;67087;50.094;14.338;2023-09-08T04:03:14;98588.26;;;27.22;30.55
77893;BME280;67087;50.094;14.338;2023-09-08T04:05:39;98587.13;;;27.21;30.28
77893;BME280;67087;50.094;14.338;2023-09-08T04:08:05;98585.95;;;27.18;30.84
77893;BME280;67087;50.094;14.338;2023-09-08T04:10:30;98586.40;;;27.23;30.88
77893;BME280;67087;50.094;14.338;2023-09-08T04:12:55;98585.80;;;27.13;30.89
77893;BME280;67087;50.094;14.338;2023-09-08T04:15:20;98586.42;;;27.58;30.68
77893;BME280;67087;50.094;14.338;2023-09-08T04:17:45;98589.00;;;27.14;30.82
77893;BME280;67087;50.094;14.338;2023-09-08T04:20:11;98588.58;;;27.09;30.70
77893;BME280;67087;50.094;14.338;2023-09-08T04:22:36;98589.65;;;27.26;31.03
77893;BME280;67087;50.094;14.338;2023-09-08T04:25:02;98594.95;;;27.60;31.70
77893;BME280;67087;50.094;14.338;2023-09-08T04:27:27;98594.87;;;27.11;31.70
77893;BME280;67087;50.094;14.338;2023-09-08T04:29:51;98597.74;;;27.32;31.30
77893;BME280;67087;50.094;14.338;2023-09-08T04:32:17;98598.14;;;27.43;31.64
77893;BME280;67087;50.094;14.338;2023-09-08T04:34:42;98600.48;;;27.02;31.14
77893;BME280;67087;50.094;14.338;2023-09-08T04:37:07;98601.66;;;27.23;31.06
77893;BME280;67087;50.094;14.338;2023-09-08T04:39:33;98600.03;;;27.19;31.29
77893;BME280;67087;50.094;14.338;2023-09-08T04:41:57;98602.88;;;27.65;30.80
77893;BME280;67087;50.094;14.338;2023-09-08T04:44:22;98605.79;;;27.20;31.21
77893;BME280;67087;50.094;14.338;2023-09-08T04:46:47;98603.84;;;27.50;32.00
77893;BME280;67087;50.094;14.338;2023-09-08T04:49:12;98602.25;;;27.28;31.55
77893;BME280;67087;50.094;14.338;2023-09-08T04:51:38;98603.64;;;27.31;31.58
77893;BME280;67087;50.094;14.338;2023-09-08T04:54:03;98600.80;;;27.34;31.66
77893;BME280;67087;50.094;14.338;2023-09-08T04:56:28;98601.85;;;27.25;31.91
77893;BME280;67087;50.094;14.338;2023-09-08T04:58:53;98598.99;;;27.28;31.44
77893;BME280;67087;50.094;14.338;2023-09-08T05:01:19;98600.84;;;27.19;31.72
77893;BME280;67087;50.094;14.338;2023-09-08T05:03:44;98598.77;;;27.25;30.86
77893;BME280;67087;50.094;14.338;2023-09-08T05:06:09;98599.48;;;27.30;31.35
77893;BME280;67087;50.094;14.338;2023-09-08T05:08:34;98599.07;;;27.53;26.81
77893;BME280;67087;50.094;14.338;2023-09-08T05:11:00;98600.57;;;27.40;26.34
77893;BME280;67087;50.094;14.338;2023-09-08T05:13:26;98602.77;;;26.54;27.17
77893;BME280;67087;50.094;14.338;2023-09-08T05:15:50;98602.34;;;26.14;27.66
77893;BME280;67087;50.094;14.338;2023-09-08T05:18:16;98601.99;;;25.55;28.22
77893;BME280;67087;50.094;14.338;2023-09-08T05:20:41;98604.37;;;25.32;28.29
77893;BME280;67087;50.094;14.338;2023-09-08T05:23:06;98607.84;;;25.53;28.40
77893;BME280;67087;50.094;14.338;2023-09-08T05:25:32;98606.72;;;25.13;28.80
77893;BME280;67087;50.094;14.338;2023-09-08T05:27:57;98607.26;;;25.82;28.35
77893;BME280;67087;50.094;14.338;2023-09-08T05:30:22;98605.45;;;25.65;28.45
77893;BME280;67087;50.094;14.338;2023-09-08T05:32:48;98608.74;;;25.46;28.77
77893;BME280;67087;50.094;14.338;2023-09-08T05:35:13;98605.98;;;25.66;28.63
77893;BME280;67087;50.094;14.338;2023-09-08T05:37:38;98606.39;;;25.15;30.07
77893;BME280;67087;50.094;14.338;2023-09-08T05:40:05;98599.72;;;25.64;29.77
77893;BME280;67087;50.094;14.338;2023-09-08T05:42:29;98602.15;;;26.50;29.08
77893;BME280;67087;50.094;14.338;2023-09-08T05:44:55;98603.32;;;26.73;29.45
77893;BME280;67087;50.094;14.338;2023-09-08T05:47:20;98603.79;;;26.91;28.95
77893;BME280;67087;50.094;14.338;2023-09-08T05:49:45;98602.95;;;26.75;29.32
77893;BME280;67087;50.094;14.338;2023-09-08T05:52:10;98606.61;;;27.20;29.18
77893;BME280;67087;50.094;14.338;2023-09-08T05:54:35;98603.72;;;27.44;29.16
77893;BME280;67087;50.094;14.338;2023-09-08T05:57:01;98607.61;;;26.89;29.73
77893;BME280;67087;50.094;14.338;2023-09-08T05:59:26;98605.21;;;27.47;29.61
77893;BME280;67087;50.094;14.338;2023-09-08T06:01:52;98607.84;;;26.61;30.63
77893;BME280;67087;50.094;14.338;2023-09-08T06:04:17;98604.54;;;27.51;27.38
77893;BME280;67087;50.094;14.338;2023-09-08T06:06:42;98605.02;;;27.83;26.91
77893;BME280;67087;50.094;14.338;2023-09-08T06:09:07;98599.57;;;27.58;27.18
77893;BME280;67087;50.094;14.338;2023-09-08T06:11:33;98605.07;;;26.53;30.76
77893;BME280;67087;50.094;14.338;2023-09-08T06:13:59;98600.80;;;27.28;30.51
77893;BME280;67087;50.094;14.338;2023-09-08T06:16:24;98603.14;;;27.30;30.81
77893;BME280;67087;50.094;14.338;2023-09-08T06:18:49;98606.12;;;27.32;30.74
77893;BME280;67087;50.094;14.338;2023-09-08T06:21:14;98604.39;;;27.25;30.86
77893;BME280;67087;50.094;14.338;2023-09-08T06:23:39;98606.59;;;26.99;30.90
77893;BME280;67087;50.094;14.338;2023-09-08T06:26:04;98610.23;;;26.84;30.81
77893;BME280;67087;50.094;14.338;2023-09-08T06:28:30;98606.69;;;27.09;30.83
77893;BME280;67087;50.094;14.338;2023-09-08T06:30:55;98607.88;;;27.46;31.33
77893;BME280;67087;50.094;14.338;2023-09-08T06:33:20;98602.79;;;27.28;31.35
77893;BME280;67087;50.094;14.338;2023-09-08T06:35:46;98602.75;;;27.48;31.15
77893;BME280;67087;50.094;14.338;2023-09-08T06:38:11;98604.78;;;27.14;31.10
77893;BME280;67087;50.094;14.338;2023-09-08T06:40:36;98603.26;;;27.51;30.36
77893;BME280;67087;50.094;14.338;2023-09-08T06:43:01;98604.70;;;27.07;31.43
77893;BME280;67087;50.094;14.338;2023-09-08T06:45:27;98604.84;;;26.98;31.58
77893;BME280;67087;50.094;14.338;2023-09-08T06:47:52;98607.59;;;27.25;31.22
77893;BME280;67087;50.094;14.338;2023-09-08T06:50:17;98610.91;;;27.56;31.20
77893;BME280;67087;50.094;14.338;2023-09-08T06:52:42;98607.74;;;27.44;31.38
77893;BME280;67087;50.094;14.338;2023-09-08T06:55:08;98609.29;;;27.04;30.99
77893;BME280;67087;50.094;14.338;2023-09-08T06:57:32;98611.64;;;27.22;31.49
77893;BME280;67087;50.094;14.338;2023-09-08T06:59:58;98611.32;;;27.08;31.51
77893;BME280;67087;50.094;14.338;2023-09-08T07:02:24;98610.99;;;27.19;31.40
77893;BME280;67087;50.094;14.338;2023-09-08T07:04:54;98610.99;;;27.33;31.60
77893;BME280;67087;50.094;14.338;2023-09-08T07:07:14;98609.34;;;27.06;31.55
77893;BME280;67087;50.094;14.338;2023-09-08T07:09:40;98610.27;;;27.51;31.13
77893;BME280;67087;50.094;14.338;2023-09-08T07:12:06;98610.35;;;27.29;30.93
77893;BME280;67087;50.094;14.338;2023-09-08T07:14:30;98612.65;;;27.15;30.61
77893;BME280;67087;50.094;14.338;2023-09-08T07:16:56;98609.45;;;27.36;30.72
77893;BME280;67087;50.094;14.338;2023-09-08T07:19:20;98608.74;;;27.67;31.02
77893;BME280;67087;50.094;14.338;2023-09-08T07:21:45;98608.96;;;27.38;30.52
77893;BME280;67087;50.094;14.338;2023-09-08T07:24:11;98612.28;;;27.54;30.43
77893;BME280;67087;50.094;14.338;2023-09-08T07:26:36;98608.75;;;27.46;30.61
77893;BME280;67087;50.094;14.338;2023-09-08T07:29:02;98608.11;;;27.46;30.61
77893;BME280;67087;50.094;14.338;2023-09-08T07:31:28;98608.12;;;27.61;30.16
77893;BME280;67087;50.094;14.338;2023-09-08T07:33:53;98608.52;;;27.72;30.39
77893;BME280;67087;50.094;14.338;2023-09-08T07:36:18;98607.41;;;27.84;30.91
77893;BME280;67087;50.094;14.338;2023-09-08T07:38:43;98609.41;;;27.68;30.20
77893;BME280;67087;50.094;14.338;2023-09-08T07:41:09;98609.99;;;27.90;30.53
77893;BME280;67087;50.094;14.338;2023-09-08T07:43:34;98610.81;;;27.99;29.85
77893;BME280;67087;50.094;14.338;2023-09-08T07:45:59;98607.66;;;28.31;29.71
77893;BME280;67087;50.094;14.338;2023-09-08T07:48:25;98607.39;;;28.29;29.68
77893;BME280;67087;50.094;14.338;2023-09-08T07:50:50;98608.66;;;27.96;29.89
77893;BME280;67087;50.094;14.338;2023-09-08T07:53:15;98609.05;;;27.61;29.87
77893;BME280;67087;50.094;14.338;2023-09-08T07:55:40;98606.69;;;27.67;30.16
77893;BME280;67087;50.094;14.338;2023-09-08T07:58:08;98606.61;;;27.94;29.79
77893;BME280;67087;50.094;14.338;2023-09-08T08:00:32;98607.66;;;28.01;29.71
77893;BME280;67087;50.094;14.338;2023-09-08T08:02:57;98607.01;;;27.83;30.18
77893;BME280;67087;50.094;14.338;2023-09-08T08:05:22;98607.71;;;28.13;30.84
77893;BME280;67087;50.094;14.338;2023-09-08T08:07:47;98608.61;;;27.95;29.64
77893;BME280;67087;50.094;14.338;2023-09-08T08:10:13;98604.17;;;27.15;30.18
77893;BME280;67087;50.094;14.338;2023-09-08T08:12:38;98602.63;;;27.74;30.60
77893;BME280;67087;50.094;14.338;2023-09-08T08:15:04;98602.40;;;27.54;29.60
77893;BME280;67087;50.094;14.338;2023-09-08T08:17:29;98602.67;;;27.33;29.65
77893;BME280;67087;50.094;14.338;2023-09-08T08:19:54;98601.31;;;27.15;29.84
77893;BME280;67087;50.094;14.338;2023-09-08T08:22:20;98599.02;;;27.62;29.88
77893;BME280;67087;50.094;14.338;2023-09-08T08:24:45;98601.64;;;26.92;30.33
77893;BME280;67087;50.094;14.338;2023-09-08T08:27:10;98599.00;;;26.98;30.24
77893;BME280;67087;50.094;14.338;2023-09-08T08:29:35;98596.76;;;27.32;30.03
77893;BME280;67087;50.094;14.338;2023-09-08T08:32:01;98593.86;;;27.40;30.01
77893;BME280;67087;50.094;14.338;2023-09-08T08:34:25;98589.49;;;26.83;30.05
77893;BME280;67087;50.094;14.338;2023-09-08T08:36:51;98594.49;;;26.68;30.44
77893;BME280;67087;50.094;14.338;2023-09-08T08:39:17;98589.35;;;27.22;30.11
77893;BME280;67087;50.094;14.338;2023-09-08T08:41:43;98589.63;;;27.11;29.93
77893;BME280;67087;50.094;14.338;2023-09-08T08:44:08;98590.75;;;27.44;29.84
77893;BME280;67087;50.094;14.338;2023-09-08T08:46:33;98585.80;;;27.25;30.03
77893;BME280;67087;50.094;14.338;2023-09-08T08:48:58;98587.05;;;27.52;29.73
77893;BME280;67087;50.094;14.338;2023-09-08T08:51:23;98587.56;;;27.03;30.63
77893;BME280;67087;50.094;14.338;2023-09-08T08:53:48;98584.93;;;27.72;29.89
77893;BME280;67087;50.094;14.338;2023-09-08T08:56:14;98582.11;;;27.45;30.29
77893;BME280;67087;50.094;14.338;2023-09-08T08:58:39;98580.48;;;27.00;30.28
77893;BME280;67087;50.094;14.338;2023-09-08T09:01:04;98581.01;;;27.20;30.56
77893;BME280;67087;50.094;14.338;2023-09-08T09:03:29;98576.84;;;26.74;30.83
77893;BME280;67087;50.094;14.338;2023-09-08T09:05:55;98576.46;;;27.44;30.28
77893;BME280;67087;50.094;14.338;2023-09-08T09:08:20;98575.17;;;27.40;30.15
77893;BME280;67087;50.094;14.338;2023-09-08T09:10:45;98572.70;;;26.86;31.83
77893;BME280;67087;50.094;14.338;2023-09-08T09:13:11;98572.90;;;27.59;30.69
77893;BME280;67087;50.094;14.338;2023-09-08T09:15:37;98575.90;;;27.26;30.43
77893;BME280;67087;50.094;14.338;2023-09-08T09:18:03;98574.65;;;27.64;29.76
77893;BME280;67087;50.094;14.338;2023-09-08T09:20:27;98576.57;;;27.85;29.46
77893;BME280;67087;50.094;14.338;2023-09-08T09:22:52;98571.31;;;27.33;29.67
77893;BME280;67087;50.094;14.338;2023-09-08T09:25:22;98567.55;;;27.41;29.66
77893;BME280;67087;50.094;14.338;2023-09-08T09:27:43;98568.05;;;27.79;29.54
77893;BME280;67087;50.094;14.338;2023-09-08T09:30:09;98569.30;;;27.29;29.55
77893;BME280;67087;50.094;14.338;2023-09-08T09:32:34;98567.08;;;27.34;29.55
77893;BME280;67087;50.094;14.338;2023-09-08T09:34:58;98566.67;;;27.33;29.54
77893;BME280;67087;50.094;14.338;2023-09-08T09:37:24;98564.28;;;27.13;29.83
77893;BME280;67087;50.094;14.338;2023-09-08T09:39:49;98562.49;;;27.27;29.74
77893;BME280;67087;50.094;14.338;2023-09-08T09:42:14;98566.08;;;27.38;29.69
77893;BME280;67087;50.094;14.338;2023-09-08T09:44:40;98562.58;;;27.36;29.47
77893;BME280;67087;50.094;14.338;2023-09-08T09:47:04;98560.62;;;26.94;29.60
77893;BME280;67087;50.094;14.338;2023-09-08T09:49:30;98558.64;;;27.03;29.34
77893;BME280;67087;50.094;14.338;2023-09-08T09:51:55;98559.11;;;27.25;29.14
77893;BME280;67087;50.094;14.338;2023-09-08T09:54:20;98561.91;;;27.39;29.38
77893;BME280;67087;50.094;14.338;2023-09-08T09:56:45;98564.00;;;27.71;29.17
77893;BME280;67087;50.094;14.338;2023-09-08T09:59:12;98562.92;;;27.54;29.24
77893;BME280;67087;50.094;14.338;2023-09-08T10:01:35;98558.67;;;27.51;29.32
77893;BME280;67087;50.094;14.338;2023-09-08T10:04:01;98558.55;;;27.33;29.48
77893;BME280;67087;50.094;14.338;2023-09-08T10:06:27;98556.58;;;27.35;29.22
77893;BME280;67087;50.094;14.338;2023-09-08T10:08:53;98558.19;;;27.48;28.63
77893;BME280;67087;50.094;14.338;2023-09-08T10:11:21;98556.14;;;27.87;28.66
77893;BME280;67087;50.094;14.338;2023-09-08T10:13:46;98554.78;;;27.34;30.09
77893;BME280;67087;50.094;14.338;2023-09-08T10:16:09;98553.45;;;27.52;30.64
77893;BME280;67087;50.094;14.338;2023-09-08T10:18:35;98547.26;;;27.76;29.31
77893;BME280;67087;50.094;14.338;2023-09-08T10:21:03;98548.08;;;27.50;29.25
77893;BME280;67087;50.094;14.338;2023-09-08T10:23:30;98547.84;;;28.21;29.46
77893;BME280;67087;50.094;14.338;2023-09-08T10:25:53;98543.75;;;27.84;30.19
77893;BME280;67087;50.094;14.338;2023-09-08T10:28:15;98544.37;;;28.11;29.57
77893;BME280;67087;50.094;14.338;2023-09-08T10:30:41;98542.00;;;27.78;29.24
77893;BME280;67087;50.094;14.338;2023-09-08T10:33:06;98537.19;;;27.18;29.88
77893;BME280;67087;50.094;14.338;2023-09-08T10:35:32;98536.37;;;27.67;29.18
77893;BME280;67087;50.094;14.338;2023-09-08T10:40:23;98532.08;;;27.70;28.88
77893;BME280;67087;50.094;14.338;2023-09-08T10:42:48;98524.67;;;27.51;30.90
77893;BME280;67087;50.094;14.338;2023-09-08T10:45:15;98523.01;;;27.61;30.16
77893;BME280;67087;50.094;14.338;2023-09-08T10:50:04;98510.30;;;27.37;30.86
77893;BME280;67087;50.094;14.338;2023-09-08T10:52:29;98509.55;;;27.30;31.42
77893;BME280;67087;50.094;14.338;2023-09-08T10:54:55;98513.93;;;27.32;30.98
77893;BME280;67087;50.094;14.338;2023-09-08T10:57:21;98510.01;;;27.27;31.67
77893;BME280;67087;50.094;14.338;2023-09-08T10:59:45;98510.50;;;27.34;31.12
77893;BME280;67087;50.094;14.338;2023-09-08T11:04:35;98507.88;;;27.23;31.37
77893;BME280;67087;50.094;14.338;2023-09-08T11:07:00;98507.54;;;27.20;31.52
77893;BME280;67087;50.094;14.338;2023-09-08T11:09:27;98506.11;;;27.41;31.46
77893;BME280;67087;50.094;14.338;2023-09-08T11:11:52;98503.66;;;27.38;31.49
77893;BME280;67087;50.094;14.338;2023-09-08T11:14:17;98501.19;;;27.15;31.65
77893;BME280;67087;50.094;14.338;2023-09-08T11:16:42;98503.09;;;27.07;31.75
77893;BME280;67087;50.094;14.338;2023-09-08T11:19:07;98504.74;;;27.26;31.43
77893;BME280;67087;50.094;14.338;2023-09-08T11:21:33;98498.14;;;26.84;31.67
77893;BME280;67087;50.094;14.338;2023-09-08T11:23:58;98503.03;;;27.18;31.35
77893;BME280;67087;50.094;14.338;2023-09-08T11:26:24;98502.70;;;27.20;31.64
77893;BME280;67087;50.094;14.338;2023-09-08T11:28:48;98501.04;;;27.32;31.50
77893;BME280;67087;50.094;14.338;2023-09-08T11:31:13;98497.89;;;27.08;31.83
77893;BME280;67087;50.094;14.338;2023-09-08T11:33:38;98494.32;;;27.13;31.95
77893;BME280;67087;50.094;14.338;2023-09-08T11:36:11;98491.37;;;27.04;31.92
77893;BME280;67087;50.094;14.338;2023-09-08T11:38:29;98496.13;;;26.59;31.95
77893;BME280;67087;50.094;14.338;2023-09-08T11:40:57;98494.36;;;27.12;31.86
77893;BME280;67087;50.094;14.338;2023-09-08T11:43:20;98490.04;;;27.04;31.96
77893;BME280;67087;50.094;14.338;2023-09-08T11:45:45;98492.56;;;27.11;31.96
77893;BME280;67087;50.094;14.338;2023-09-08T11:48:10;98488.98;;;27.08;32.12
77893;BME280;67087;50.094;14.338;2023-09-08T11:50:35;98487.44;;;27.24;31.97
77893;BME280;67087;50.094;14.338;2023-09-08T11:53:01;98481.86;;;27.22;31.79
77893;BME280;67087;50.094;14.338;2023-09-08T11:55:27;98481.68;;;27.10;32.04
77893;BME280;67087;50.094;14.338;2023-09-08T11:57:53;98481.64;;;27.20;31.75
77893;BME280;67087;50.094;14.338;2023-09-08T12:00:18;98479.91;;;27.16;31.94
77893;BME280;67087;50.094;14.338;2023-09-08T12:02:43;98478.37;;;27.24;31.47
77893;BME280;67087;50.094;14.338;2023-09-08T12:05:11;98478.64;;;27.22;31.56
77893;BME280;67087;50.094;14.338;2023-09-08T12:07:33;98473.47;;;27.13;31.66
77893;BME280;67087;50.094;14.338;2023-09-08T12:09:58;98468.99;;;27.40;31.61
77893;BME280;67087;50.094;14.338;2023-09-08T12:12:23;98465.03;;;27.28;31.35
77893;BME280;67087;50.094;14.338;2023-09-08T12:14:48;98463.52;;;27.15;31.56
77893;BME280;67087;50.094;14.338;2023-09-08T12:17:13;98461.87;;;27.18;31.39
77893;BME280;67087;50.094;14.338;2023-09-08T12:19:39;98459.64;;;27.30;31.12
77893;BME280;67087;50.094;14.338;2023-09-08T12:22:06;98458.87;;;27.33;30.95
77893;BME280;67087;50.094;14.338;2023-09-08T12:24:48;98457.20;;;27.16;30.74
77893;BME280;67087;50.094;14.338;2023-09-08T12:26:55;98452.81;;;27.42;30.58
77893;BME280;67087;50.094;14.338;2023-09-08T12:29:20;98453.36;;;27.66;30.53
77893;BME280;67087;50.094;14.338;2023-09-08T12:31:45;98451.65;;;27.41;30.48
77893;BME280;67087;50.094;14.338;2023-09-08T12:34:11;98449.65;;;27.41;30.44
77893;BME280;67087;50.094;14.338;2023-09-08T12:36:36;98451.41;;;27.53;30.22
77893;BME280;67087;50.094;14.338;2023-09-08T12:39:04;98448.67;;;28.24;29.93
77893;BME280;67087;50.094;14.338;2023-09-08T12:41:27;98444.15;;;27.79;29.89
77893;BME280;67087;50.094;14.338;2023-09-08T12:43:51;98444.66;;;27.75;29.92
77893;BME280;67087;50.094;14.338;2023-09-08T12:46:17;98442.96;;;28.04;29.80